Time;durP1;ratioP1;P1;durP2;ratioP2;P2;SDS_P1;SDS_P2;PMS_P1;PMS_P2;Temp;Humidity;BMP_temperature;BMP_pressure;BME280_temperature;BME280_humidity;BME280_pressure;Samples;Min_cycle;Max_cycle;Signal;HPM_P1;HPM_P2
2022/08/07 00:00:55;;;;;;;2.10;1.60;;;18.00;76.10;;;;;;5035425;28;20414;-69
2022/08/07 00:03:21;;;;;;;2.13;1.50;;;18.00;76.00;;;;;;5035277;28;20413;-69
2022/08/07 00:05:47;;;;;;;1.70;1.60;;;18.00;76.60;;;;;;5034783;28;20190;-68
2022/08/07 00:08:12;;;;;;;2.60;1.50;;;18.10;76.10;;;;;;5035020;28;20893;-69
2022/08/07 00:10:38;;;;;;;1.60;1.50;;;18.10;76.70;;;;;;5035018;28;20205;-69
2022/08/07 00:13:05;;;;;;;4.10;1.30;;;18.00;76.70;;;;;;5035014;28;20547;-69
2022/08/07 00:15:31;;;;;;;2.10;1.57;;;18.10;76.60;;;;;;5034681;28;20421;-69
2022/08/07 00:17:57;;;;;;;2.03;1.40;;;18.00;76.30;;;;;;5033615;28;20394;-69
2022/08/07 00:20:23;;;;;;;1.80;1.30;;;18.00;77.40;;;;;;5034154;28;20929;-69
2022/08/07 00:22:48;;;;;;;1.90;1.60;;;18.10;77.40;;;;;;5034772;28;20179;-69
2022/08/07 00:25:14;;;;;;;1.60;1.47;;;18.00;78.10;;;;;;5034380;28;20445;-69
2022/08/07 00:27:40;;;;;;;1.50;1.40;;;17.90;78.30;;;;;;5035366;28;20163;-69
2022/08/07 00:30:06;;;;;;;2.43;1.27;;;18.00;78.40;;;;;;5034685;28;20174;-69
2022/08/07 00:32:31;;;;;;;1.90;1.50;;;17.90;78.40;;;;;;5034457;28;20162;-69
2022/08/07 00:34:57;;;;;;;3.20;1.63;;;17.90;78.80;;;;;;5036444;28;20922;-69
2022/08/07 00:37:23;;;;;;;3.10;1.23;;;17.80;78.70;;;;;;5034612;28;20567;-69
2022/08/07 00:39:49;;;;;;;2.30;1.57;;;17.80;78.10;;;;;;5033126;28;20176;-69
2022/08/07 00:42:15;;;;;;;1.47;1.37;;;17.70;78.30;;;;;;5034377;28;20411;-69
2022/08/07 00:44:40;;;;;;;2.23;1.77;;;17.70;79.20;;;;;;5034162;28;20230;-69
2022/08/07 00:47:07;;;;;;;1.63;1.30;;;17.70;79.40;;;;;;5034187;28;20176;-69
2022/08/07 00:49:33;;;;;;;4.33;1.60;;;17.80;79.60;;;;;;5034275;28;20544;-69
2022/08/07 00:51:58;;;;;;;5.87;1.80;;;17.80;79.10;;;;;;5033296;28;20468;-69
2022/08/07 00:54:24;;;;;;;2.47;1.83;;;17.80;78.80;;;;;;5035353;28;20190;-70
2022/08/07 00:56:50;;;;;;;1.70;1.60;;;17.80;79.30;;;;;;5034804;28;20185;-69
2022/08/07 00:59:20;;;;;;;1.40;1.30;;;17.80;79.00;;;;;;5034362;28;20638;-69
2022/08/07 01:01:47;;;;;;;1.70;1.60;;;17.70;79.90;;;;;;5034497;28;20412;-69
2022/08/07 01:04:15;;;;;;;1.60;1.20;;;17.60;80.00;;;;;;5034282;28;20444;-69
2022/08/07 01:06:40;;;;;;;3.20;1.67;;;17.60;80.00;;;;;;5033853;28;20413;-68
2022/08/07 01:09:06;;;;;;;2.53;1.47;;;17.60;80.20;;;;;;5033802;28;20825;-69
2022/08/07 01:11:32;;;;;;;3.63;1.63;;;17.60;80.50;;;;;;5033803;28;20565;-69
2022/08/07 01:13:59;;;;;;;1.47;1.30;;;17.60;81.10;;;;;;5034314;28;20190;-68
2022/08/07 01:16:25;;;;;;;1.67;1.57;;;17.60;81.40;;;;;;5034093;28;20441;-69
2022/08/07 01:18:51;;;;;;;2.57;1.50;;;17.60;82.00;;;;;;5034079;28;20493;-68
2022/08/07 01:21:23;;;;;;;1.43;1.33;;;17.60;82.60;;;;;;5033484;28;20923;-68
2022/08/07 01:23:50;;;;;;;1.23;1.13;;;17.40;81.90;;;;;;5033284;28;20207;-69
2022/08/07 01:26:19;;;;;;;1.60;1.50;;;17.40;82.30;;;;;;5033320;28;20739;-69
2022/08/07 01:28:47;;;;;;;1.70;1.20;;;17.40;82.50;;;;;;5013664;28;20403;-69
2022/08/07 01:31:14;;;;;;;2.23;1.43;;;17.30;82.70;;;;;;5013973;28;20454;-69
2022/08/07 01:33:40;;;;;;;1.57;1.40;;;17.30;83.00;;;;;;5014265;28;20442;-69
2022/08/07 01:36:08;;;;;;;1.30;1.20;;;17.50;83.00;;;;;;5014561;28;20406;-69
2022/08/07 01:38:34;;;;;;;2.13;1.67;;;17.50;83.40;;;;;;5014476;28;20410;-69
2022/08/07 01:41:02;;;;;;;1.80;1.20;;;17.50;83.50;;;;;;5014804;28;20746;-69
2022/08/07 01:43:29;;;;;;;3.27;1.40;;;17.60;84.00;;;;;;5014128;28;20550;-69
2022/08/07 01:45:56;;;;;;;2.03;1.23;;;17.60;83.20;;;;;;5014237;28;20807;-69
2022/08/07 01:48:23;;;;;;;1.30;1.20;;;17.50;83.40;;;;;;5014211;28;20898;-69
2022/08/07 01:51:02;;;;;;;2.13;1.50;;;17.30;85.10;;;;;;5013782;28;20563;-69
2022/08/07 01:53:31;;;;;;;1.20;1.10;;;17.30;85.50;;;;;;5021650;28;20502;-68
2022/08/07 01:56:01;;;;;;;2.07;1.43;;;17.10;85.30;;;;;;5033280;28;20424;-69
2022/08/07 01:58:33;;;;;;;1.50;1.40;;;17.10;86.60;;;;;;5033798;28;20381;-69
2022/08/07 02:01:03;;;;;;;1.97;1.60;;;17.10;86.60;;;;;;5034050;28;20766;-69
2022/08/07 02:03:30;;;;;;;2.10;1.40;;;17.10;86.60;;;;;;5033645;28;20878;-69
2022/08/07 02:06:06;;;;;;;1.50;1.40;;;17.10;87.30;;;;;;5033069;28;20431;-69
2022/08/07 02:08:36;;;;;;;1.67;1.30;;;17.10;88.40;;;;;;5032939;28;20487;-69
2022/08/07 02:11:03;;;;;;;1.40;1.27;;;17.10;88.40;;;;;;5026694;28;20500;-69
2022/08/07 02:13:32;;;;;;;2.27;1.57;;;17.00;88.40;;;;;;5032340;28;20815;-68
2022/08/07 02:16:01;;;;;;;1.70;1.60;;;17.10;88.40;;;;;;5033154;28;20416;-69
2022/08/07 02:18:30;;;;;;;2.50;1.50;;;17.20;88.70;;;;;;5033010;28;20747;-68
2022/08/07 02:20:58;;;;;;;1.30;1.20;;;17.20;89.40;;;;;;5033056;28;20416;-69
2022/08/07 02:23:24;;;;;;;1.60;1.23;;;17.20;89.20;;;;;;5032509;28;20475;-69
2022/08/07 02:25:52;;;;;;;2.77;1.80;;;17.00;89.60;;;;;;5056756;23;20965;-67
2022/08/07 02:28:19;;;;;;;2.37;1.47;;;17.00;90.00;;;;;;5033934;28;20412;-67
2022/08/07 02:30:46;;;;;;;1.30;1.20;;;17.00;90.10;;;;;;5032217;28;20857;-67
2022/08/07 02:33:14;;;;;;;2.10;1.53;;;16.90;90.40;;;;;;5032079;28;20414;-67
2022/08/07 02:35:41;;;;;;;2.60;1.60;;;16.80;90.60;;;;;;5038433;28;20441;-67
2022/08/07 02:38:09;;;;;;;1.47;1.37;;;16.80;90.90;;;;;;5014264;28;20418;-67
2022/08/07 02:40:37;;;;;;;1.80;1.50;;;16.60;91.30;;;;;;5032029;28;20423;-67
2022/08/07 02:43:05;;;;;;;1.93;1.23;;;16.60;92.00;;;;;;5035548;28;20404;-67
2022/08/07 02:45:32;;;;;;;1.57;1.47;;;16.60;91.90;;;;;;5035568;28;20429;-66
2022/08/07 02:47:58;;;;;;;2.23;1.70;;;16.70;92.10;;;;;;5035854;28;20408;-67
2022/08/07 02:50:24;;;;;;;2.10;1.73;;;16.70;92.20;;;;;;5036105;28;21032;-67
2022/08/07 02:52:57;;;;;;;1.80;1.70;;;16.70;92.60;;;;;;5035593;28;20421;-67
2022/08/07 02:55:25;;;;;;;1.57;1.47;;;16.70;92.80;;;;;;5035402;28;20424;-67
2022/08/07 02:57:53;;;;;;;1.70;1.60;;;16.60;93.00;;;;;;5035715;28;20403;-67
2022/08/07 03:00:19;;;;;;;2.77;1.60;;;16.60;93.50;;;;;;5036011;28;20488;-67
2022/08/07 03:02:47;;;;;;;1.33;1.20;;;16.60;93.60;;;;;;5035850;28;20872;-66
2022/08/07 03:05:14;;;;;;;1.70;1.50;;;16.50;94.00;;;;;;5035622;28;20475;-66
2022/08/07 03:07:41;;;;;;;2.70;1.83;;;16.50;94.40;;;;;;5035675;28;20411;-67
2022/08/07 03:10:08;;;;;;;3.30;1.60;;;16.50;94.50;;;;;;5017355;28;20997;-66
2022/08/07 03:12:35;;;;;;;2.73;1.77;;;16.50;94.60;;;;;;5035534;28;20420;-67
2022/08/07 03:15:02;;;;;;;2.60;1.63;;;16.30;94.80;;;;;;5035964;28;20508;-67
2022/08/07 03:17:28;;;;;;;1.90;1.57;;;16.30;95.60;;;;;;5035335;28;20408;-67
2022/08/07 03:19:55;;;;;;;6.07;1.60;;;16.40;95.40;;;;;;5035634;28;20774;-67
2022/08/07 03:22:23;;;;;;;2.80;1.50;;;16.30;95.50;;;;;;5035703;28;20399;-66
2022/08/07 03:24:48;;;;;;;1.70;1.60;;;16.40;95.90;;;;;;5034473;28;20455;-66
2022/08/07 03:27:15;;;;;;;1.50;1.40;;;16.40;96.00;;;;;;5035283;28;20423;-66
2022/08/07 03:29:49;;;;;;;2.90;1.50;;;16.40;96.40;;;;;;5017388;28;20208;-66
2022/08/07 03:32:17;;;;;;;1.60;1.50;;;16.30;96.50;;;;;;5035532;28;20536;-66
2022/08/07 03:34:46;;;;;;;1.57;1.47;;;16.30;97.20;;;;;;5035070;28;20792;-66
2022/08/07 03:37:12;;;;;;;1.50;1.40;;;16.40;97.00;;;;;;5036196;28;20404;-67
2022/08/07 03:39:39;;;;;;;1.87;1.67;;;16.40;97.30;;;;;;5034680;28;20811;-67
2022/08/07 03:42:05;;;;;;;1.70;1.60;;;16.40;97.30;;;;;;5035188;28;20409;-66
2022/08/07 03:44:34;;;;;;;2.03;1.60;;;16.30;97.70;;;;;;5035041;28;20441;-66
2022/08/07 03:47:01;;;;;;;2.27;2.07;;;16.20;97.90;;;;;;5034922;28;20715;-66
2022/08/07 03:49:27;;;;;;;2.57;1.50;;;16.20;98.50;;;;;;5034792;28;20763;-67
2022/08/07 03:51:55;;;;;;;1.70;1.60;;;16.30;98.60;;;;;;5034628;28;20496;-67
2022/08/07 03:54:21;;;;;;;1.90;1.70;;;16.40;98.50;;;;;;5015534;28;20457;-67
2022/08/07 03:56:48;;;;;;;1.60;1.50;;;16.50;98.30;;;;;;5034958;28;20718;-67
2022/08/07 03:59:14;;;;;;;1.83;1.73;;;16.60;98.40;;;;;;5034122;28;20173;-67
2022/08/07 04:01:42;;;;;;;2.63;2.13;;;16.60;98.80;;;;;;5034754;28;20796;-67
2022/08/07 04:04:09;;;;;;;3.60;1.60;;;16.50;99.10;;;;;;5034412;28;20929;-67
2022/08/07 04:06:36;;;;;;;2.70;1.43;;;16.50;99.20;;;;;;5034450;28;20437;-66
2022/08/07 04:09:03;;;;;;;1.77;1.67;;;16.40;99.50;;;;;;5034187;28;20414;-67
2022/08/07 04:11:30;;;;;;;2.07;1.60;;;16.40;99.90;;;;;;5034235;28;20439;-66
2022/08/07 04:13:56;;;;;;;1.63;1.40;;;16.40;99.90;;;;;;5034106;28;20509;-67
2022/08/07 04:16:22;;;;;;;1.70;1.57;;;16.40;99.90;;;;;;5035184;28;20418;-67
2022/08/07 04:18:48;;;;;;;1.70;1.60;;;16.40;99.90;;;;;;5043162;28;20417;-66
2022/08/07 04:21:14;;;;;;;2.23;1.43;;;16.40;99.90;;;;;;5034251;28;20191;-66
2022/08/07 04:23:40;;;;;;;2.30;1.70;;;16.40;99.90;;;;;;5033839;28;20180;-67
2022/08/07 04:26:06;;;;;;;2.80;1.80;;;16.50;99.90;;;;;;5034056;28;20211;-67
2022/08/07 04:28:32;;;;;;;2.10;1.90;;;16.50;99.90;;;;;;5034499;28;20449;-67
2022/08/07 04:30:58;;;;;;;2.23;1.90;;;16.40;99.90;;;;;;5033927;28;21008;-66
2022/08/07 04:33:26;;;;;;;2.73;1.83;;;16.30;99.90;;;;;;5033881;28;20200;-67
2022/08/07 04:35:52;;;;;;;4.23;2.10;;;16.20;99.90;;;;;;5023382;28;20444;-66
2022/08/07 04:38:18;;;;;;;1.63;1.53;;;16.20;99.90;;;;;;5053998;28;20406;-67
2022/08/07 04:40:45;;;;;;;1.80;1.70;;;16.20;99.90;;;;;;5053538;28;20414;-67
2022/08/07 04:43:15;;;;;;;1.80;1.70;;;16.30;99.90;;;;;;5053883;28;20410;-66
2022/08/07 04:46:00;;;;;;;2.93;2.17;;;16.40;99.90;;;;;;5053324;28;20914;-67
2022/08/07 04:49:02;;;;;;;1.90;1.80;;;16.30;99.90;;;;;;5053680;28;20733;-67
2022/08/07 04:51:36;;;;;;;2.53;2.17;;;16.30;99.90;;;;;;5053800;28;20432;-67
2022/08/07 04:54:21;;;;;;;2.40;2.20;;;16.40;99.90;;;;;;5044648;28;20423;-67
2022/08/07 04:57:02;;;;;;;2.03;1.93;;;16.30;99.90;;;;;;5034187;28;20409;-67
2022/08/07 04:59:35;;;;;;;2.20;2.00;;;16.30;99.90;;;;;;5032985;28;20419;-67
2022/08/07 05:02:09;;;;;;;2.20;2.00;;;16.40;99.90;;;;;;5033565;28;20384;-67
2022/08/07 05:05:03;;;;;;;2.10;2.00;;;16.40;99.90;;;;;;5033039;28;20440;-67
2022/08/07 05:07:54;;;;;;;2.30;2.10;;;16.60;99.90;;;;;;5033942;28;20491;-67
2022/08/07 05:10:47;;;;;;;4.87;2.10;;;16.60;99.90;;;;;;5033393;28;20411;-67
2022/08/07 05:13:24;;;;;;;2.30;2.00;;;16.60;99.90;;;;;;5033471;28;20405;-67
2022/08/07 05:15:51;;;;;;;2.73;2.50;;;16.60;99.90;;;;;;5033602;28;20424;-67
2022/08/07 05:18:27;;;;;;;2.77;2.47;;;16.60;99.90;;;;;;5033432;28;20405;-66
2022/08/07 05:20:56;;;;;;;2.63;2.07;;;16.70;99.90;;;;;;5033253;28;20393;-66
2022/08/07 05:23:29;;;;;;;2.30;2.00;;;16.80;99.90;;;;;;5033134;28;20787;-67
2022/08/07 05:25:56;;;;;;;2.67;2.47;;;16.90;99.90;;;;;;5032605;28;20458;-67
2022/08/07 05:28:23;;;;;;;3.63;2.00;;;16.90;99.90;;;;;;5032899;28;20419;-66
2022/08/07 05:30:51;;;;;;;2.80;2.30;;;17.00;99.90;;;;;;5032833;28;20602;-66
2022/08/07 05:33:18;;;;;;;2.50;2.30;;;17.10;99.90;;;;;;5032004;28;20448;-67
2022/08/07 05:35:45;;;;;;;2.30;1.87;;;17.20;99.90;;;;;;5032566;28;20428;-67
2022/08/07 05:38:11;;;;;;;2.00;1.80;;;17.30;99.90;;;;;;5033107;28;20401;-67
2022/08/07 05:40:38;;;;;;;3.60;2.50;;;17.40;99.90;;;;;;5032747;28;20414;-66
2022/08/07 05:43:04;;;;;;;3.63;2.20;;;17.50;99.90;;;;;;5032781;28;20864;-66
2022/08/07 05:45:30;;;;;;;2.63;1.93;;;17.50;99.90;;;;;;5032983;28;20429;-66
2022/08/07 05:47:56;;;;;;;2.30;1.90;;;17.60;99.90;;;;;;5032988;28;20822;-67
2022/08/07 05:50:22;;;;;;;2.73;1.90;;;17.70;99.90;;;;;;5032462;28;20435;-66
2022/08/07 05:52:48;;;;;;;1.63;1.53;;;17.80;99.90;;;;;;5032841;28;20539;-66
2022/08/07 05:55:14;;;;;;;3.70;2.00;;;18.00;99.90;;;;;;5031651;28;20449;-66
2022/08/07 05:57:40;;;;;;;2.23;1.80;;;18.10;99.90;;;;;;5015029;28;20442;-66
2022/08/07 06:00:07;;;;;;;2.10;1.73;;;18.20;99.90;;;;;;5032750;28;20171;-66
2022/08/07 06:02:35;;;;;;;2.33;1.90;;;18.30;99.90;;;;;;5032750;28;20413;-66
2022/08/07 06:05:08;;;;;;;2.73;1.77;;;18.50;99.90;;;;;;5032749;28;20537;-67
2022/08/07 06:07:34;;;;;;;2.33;2.10;;;18.60;99.90;;;;;;5032910;28;20389;-67
2022/08/07 06:10:00;;;;;;;2.67;2.20;;;18.80;99.90;;;;;;5032285;28;20499;-67
2022/08/07 06:12:27;;;;;;;2.50;2.30;;;18.90;99.90;;;;;;5032748;28;20584;-67
2022/08/07 06:14:53;;;;;;;2.43;2.23;;;19.00;99.90;;;;;;5032364;28;20433;-67
2022/08/07 06:17:20;;;;;;;2.80;2.43;;;19.10;99.90;;;;;;5034811;28;20402;-67
2022/08/07 06:19:48;;;;;;;4.77;2.60;;;19.20;99.90;;;;;;5036655;28;20432;-67
2022/08/07 06:22:15;;;;;;;2.30;1.97;;;19.30;99.90;;;;;;5036438;28;20414;-67
2022/08/07 06:24:41;;;;;;;2.97;2.40;;;19.50;99.90;;;;;;5036070;28;20455;-67
2022/08/07 06:27:07;;;;;;;2.70;2.50;;;19.60;99.90;;;;;;5036503;28;20992;-67
2022/08/07 06:29:33;;;;;;;2.67;2.47;;;19.60;99.90;;;;;;5036692;28;20171;-67
2022/08/07 06:31:59;;;;;;;3.17;2.70;;;19.70;99.90;;;;;;5036207;28;20816;-67
2022/08/07 06:34:26;;;;;;;2.90;2.70;;;19.80;99.90;;;;;;5035965;28;20422;-67
2022/08/07 06:36:53;;;;;;;3.70;3.40;;;19.90;99.90;;;;;;5051610;28;20405;-67
2022/08/07 06:39:20;;;;;;;3.60;3.30;;;20.00;99.90;;;;;;5055844;28;20397;-67
2022/08/07 06:41:54;;;;;;;3.13;2.83;;;20.00;99.90;;;;;;5056121;28;20432;-67
2022/08/07 06:44:21;;;;;;;4.13;2.50;;;20.20;99.90;;;;;;5056113;28;20858;-67
2022/08/07 06:46:47;;;;;;;3.90;3.60;;;20.50;99.90;;;;;;5056053;28;20902;-67
2022/08/07 06:49:13;;;;;;;4.30;3.70;;;20.50;99.90;;;;;;5054375;28;20456;-67
2022/08/07 06:51:42;;;;;;;3.60;3.30;;;20.60;99.90;;;;;;5046275;28;20686;-67
2022/08/07 06:54:11;;;;;;;3.57;3.27;;;20.70;99.90;;;;;;5045922;28;20853;-70
2022/08/07 06:56:42;;;;;;;4.00;3.47;;;20.60;99.90;;;;;;5044867;28;20499;-69
2022/08/07 06:59:14;;;;;;;3.30;3.10;;;20.60;99.90;;;;;;5046084;28;20498;-68
2022/08/07 07:01:41;;;;;;;4.00;3.70;;;20.60;99.90;;;;;;5049271;28;20828;-67
2022/08/07 07:04:08;;;;;;;3.60;3.30;;;20.40;99.90;;;;;;5055694;28;20450;-67
2022/08/07 07:06:34;;;;;;;4.30;3.90;;;20.30;99.90;;;;;;5055406;28;20447;-67
2022/08/07 07:09:32;;;;;;;3.87;3.50;;;20.10;99.90;;;;;;5051860;28;20941;-67
2022/08/07 07:12:07;;;;;;;4.77;3.87;;;20.00;99.90;;;;;;5018948;28;20564;-66
2022/08/07 07:14:48;;;;;;;4.00;3.70;;;20.00;99.90;;;;;;5055656;28;20424;-67
2022/08/07 07:17:37;;;;;;;4.03;3.70;;;20.10;99.90;;;;;;5055648;28;20447;-66
2022/08/07 07:20:07;;;;;;;4.37;3.93;;;20.30;99.90;;;;;;5055285;28;20410;-67
2022/08/07 07:22:33;;;;;;;3.23;2.93;;;20.30;99.90;;;;;;5055751;28;20818;-67
2022/08/07 07:25:01;;;;;;;3.97;3.67;;;20.70;99.90;;;;;;5055125;28;20799;-66
2022/08/07 07:27:31;;;;;;;3.70;3.40;;;20.80;99.90;;;;;;5054270;28;20405;-66
2022/08/07 07:30:01;;;;;;;4.53;3.37;;;20.80;99.90;;;;;;5055312;28;20982;-66
2022/08/07 07:32:31;;;;;;;3.23;2.87;;;20.90;99.90;;;;;;5055865;28;20445;-66
2022/08/07 07:34:59;;;;;;;3.23;2.93;;;21.10;99.90;;;;;;5055979;28;20405;-66
2022/08/07 07:37:27;;;;;;;3.17;2.87;;;21.20;99.90;;;;;;5035637;28;20418;-66
2022/08/07 07:39:57;;;;;;;3.13;2.90;;;21.40;99.90;;;;;;5035337;28;20406;-67
2022/08/07 07:42:25;;;;;;;3.77;2.87;;;21.30;99.90;;;;;;5034544;28;20481;-66
2022/08/07 07:44:52;;;;;;;3.13;2.83;;;21.40;99.90;;;;;;5035186;28;20415;-66
2022/08/07 07:47:19;;;;;;;2.83;2.63;;;21.50;99.90;;;;;;5035008;28;20489;-66
2022/08/07 07:49:47;;;;;;;2.60;2.37;;;21.50;99.90;;;;;;5034807;28;20593;-66
2022/08/07 07:52:14;;;;;;;2.77;2.40;;;21.60;99.80;;;;;;5035598;28;20958;-66
2022/08/07 07:54:42;;;;;;;3.63;2.47;;;21.80;99.20;;;;;;5034843;28;20954;-66
2022/08/07 07:57:09;;;;;;;4.20;2.30;;;21.70;98.40;;;;;;5033034;28;20418;-66
2022/08/07 07:59:37;;;;;;;2.23;2.00;;;21.60;97.40;;;;;;5035509;28;20452;-67
2022/08/07 08:02:04;;;;;;;2.17;2.07;;;21.60;97.60;;;;;;5034761;28;20768;-66
2022/08/07 08:04:32;;;;;;;2.30;2.10;;;21.70;96.90;;;;;;5034617;28;20772;-66
2022/08/07 08:07:00;;;;;;;3.43;2.20;;;21.70;96.40;;;;;;5017189;28;20414;-66
2022/08/07 08:09:27;;;;;;;3.13;1.63;;;21.80;96.60;;;;;;5035005;28;20438;-65
2022/08/07 08:11:53;;;;;;;4.60;1.47;;;22.10;95.90;;;;;;5034049;28;20445;-66
2022/08/07 08:14:20;;;;;;;2.23;2.03;;;22.20;95.30;;;;;;5016615;28;20445;-66
2022/08/07 08:16:46;;;;;;;1.75;1.60;;;22.20;94.80;;;;;;5033880;28;20405;-66
2022/08/07 08:19:16;;;;;;;2.80;1.90;;;22.30;94.20;;;;;;5034736;28;20675;-66
2022/08/07 08:27:04;;;;;;;2.47;1.50;;;22.30;93.10;;;;;;5028365;28;20441;-66
2022/08/07 08:29:42;;;;;;;1.80;1.67;;;22.30;93.00;;;;;;5015551;28;20414;-66
2022/08/07 08:32:14;;;;;;;2.47;1.50;;;22.30;93.20;;;;;;5034793;28;20438;-67
2022/08/07 08:34:40;;;;;;;1.43;1.33;;;22.30;93.20;;;;;;5037866;28;20390;-66
2022/08/07 08:37:10;;;;;;;3.00;1.80;;;22.50;92.80;;;;;;5056023;28;20398;-66
2022/08/07 08:39:36;;;;;;;1.87;1.77;;;22.50;92.60;;;;;;5047456;28;20431;-66
2022/08/07 08:42:17;;;;;;;3.07;1.80;;;22.60;92.00;;;;;;5035605;28;20766;-66
2022/08/07 08:44:51;;;;;;;1.90;1.53;;;22.60;91.70;;;;;;5035505;28;20422;-66
2022/08/07 08:48:02;;;;;;;2.10;1.30;;;22.70;91.60;;;;;;5035068;28;20382;-66
2022/08/07 08:50:33;;;;;;;1.07;0.97;;;22.70;91.60;;;;;;5033319;28;20422;-66
2022/08/07 08:53:31;;;;;;;1.70;1.60;;;22.80;90.60;;;;;;5034781;28;20859;-66
2022/08/07 08:56:02;;;;;;;2.17;1.30;;;22.90;89.70;;;;;;5003730;28;20525;-66
2022/08/07 08:58:34;;;;;;;1.37;1.27;;;23.00;88.70;;;;;;5033205;28;20441;-66
2022/08/07 09:01:32;;;;;;;1.50;1.40;;;23.10;88.40;;;;;;5035458;28;20402;-66
2022/08/07 09:04:14;;;;;;;1.73;1.30;;;23.20;85.50;;;;;;5035553;28;20438;-66
2022/08/07 09:07:05;;;;;;;1.73;1.63;;;23.10;86.20;;;;;;5035680;28;20429;-67
2022/08/07 09:10:00;;;;;;;1.50;1.30;;;23.10;84.90;;;;;;5035710;28;20382;-67
2022/08/07 09:12:29;;;;;;;1.87;1.50;;;23.30;82.50;;;;;;5035729;28;20454;-66
2022/08/07 09:15:10;;;;;;;1.90;1.30;;;23.50;81.80;;;;;;5035670;28;20934;-66
2022/08/07 09:17:59;;;;;;;1.60;1.23;;;23.50;78.90;;;;;;5035962;28;20504;-66
2022/08/07 09:20:53;;;;;;;1.93;1.30;;;23.30;79.30;;;;;;5004650;28;20472;-66
2022/08/07 09:23:48;;;;;;;1.53;1.30;;;23.40;78.60;;;;;;5033630;28;20723;-68
2022/08/07 09:26:37;;;;;;;1.43;1.13;;;23.40;78.70;;;;;;5033178;28;20579;-68
2022/08/07 09:29:18;;;;;;;2.13;1.27;;;23.50;78.50;;;;;;5033110;28;20536;-68
2022/08/07 09:32:23;;;;;;;1.10;1.00;;;23.40;77.70;;;;;;5032906;28;20445;-68
2022/08/07 09:35:01;;;;;;;1.40;1.10;;;23.40;77.30;;;;;;5033268;28;20433;-68
2022/08/07 09:38:10;;;;;;;1.47;1.00;;;23.40;77.20;;;;;;5032684;28;20757;-68
2022/08/07 09:40:58;;;;;;;3.10;1.37;;;23.60;76.80;;;;;;4971743;28;20416;-68
2022/08/07 09:43:27;;;;;;;1.37;1.00;;;23.90;77.80;;;;;;4972265;28;20878;-68
2022/08/07 09:46:30;;;;;;;1.17;1.00;;;23.80;74.80;;;;;;5013703;28;20473;-68
2022/08/07 09:49:34;;;;;;;2.60;1.27;;;23.80;73.20;;;;;;5034368;28;20501;-68
2022/08/07 09:52:30;;;;;;;2.53;1.20;;;23.60;73.10;;;;;;5003553;28;20468;-68
2022/08/07 09:55:12;;;;;;;1.10;1.00;;;23.80;72.70;;;;;;5033808;28;20465;-68
2022/08/07 09:58:19;;;;;;;1.50;1.00;;;23.90;72.00;;;;;;5033746;28;20460;-68
2022/08/07 10:01:20;;;;;;;1.00;0.80;;;24.00;71.10;;;;;;5032425;28;20457;-68
2022/08/07 10:03:57;;;;;;;3.70;1.00;;;24.20;70.20;;;;;;5033706;28;20402;-69
2022/08/07 10:06:55;;;;;;;1.30;0.93;;;24.20;69.40;;;;;;5033571;28;20491;-68
2022/08/07 10:09:29;;;;;;;1.77;1.03;;;24.20;68.70;;;;;;5012470;28;20973;-68
2022/08/07 10:12:11;;;;;;;1.20;0.90;;;24.00;67.70;;;;;;5033090;28;20445;-68
2022/08/07 10:15:15;;;;;;;1.20;0.90;;;24.10;67.80;;;;;;5033001;28;20421;-68
2022/08/07 10:17:52;;;;;;;4.30;1.20;;;24.30;66.20;;;;;;5033202;28;20397;-68
2022/08/07 10:20:26;;;;;;;1.20;0.80;;;24.20;65.80;;;;;;5031952;28;20509;-69
2022/08/07 10:23:07;;;;;;;2.40;1.00;;;24.20;66.60;;;;;;5033158;28;20413;-68
2022/08/07 10:25:41;;;;;;;0.90;0.70;;;24.40;65.30;;;;;;5015260;28;20445;-68
2022/08/07 10:28:10;;;;;;;0.97;0.83;;;24.40;64.70;;;;;;5033186;28;20397;-68
2022/08/07 10:31:24;;;;;;;1.30;1.00;;;24.30;65.50;;;;;;5032945;28;20461;-68
2022/08/07 10:34:01;;;;;;;1.20;1.00;;;24.50;64.80;;;;;;5019597;28;20930;-68
2022/08/07 10:36:37;;;;;;;2.07;0.90;;;24.60;64.70;;;;;;5032790;28;20413;-68
2022/08/07 10:39:41;;;;;;;2.40;1.03;;;24.80;64.40;;;;;;5034321;28;20465;-68
2022/08/07 10:42:09;;;;;;;1.20;1.00;;;24.90;62.10;;;;;;5013511;28;20401;-68
2022/08/07 10:44:46;;;;;;;2.93;0.80;;;24.90;60.90;;;;;;4995223;28;20768;-67
2022/08/07 10:47:43;;;;;;;1.53;1.10;;;25.10;61.70;;;;;;5013289;28;20445;-68
2022/08/07 10:50:34;;;;;;;2.07;0.97;;;25.10;61.80;;;;;;5015624;28;20403;-68
2022/08/07 10:53:08;;;;;;;1.93;1.20;;;24.90;61.70;;;;;;5025459;28;20449;-68
2022/08/07 10:56:14;;;;;;;2.23;0.87;;;25.20;61.70;;;;;;5032836;28;20426;-68
2022/08/07 10:59:16;;;;;;;3.30;1.00;;;25.30;61.50;;;;;;5033135;28;20377;-68
2022/08/07 11:01:48;;;;;;;1.53;0.80;;;25.50;60.40;;;;;;5012368;28;20438;-68
2022/08/07 11:04:32;;;;;;;3.63;1.00;;;26.00;59.70;;;;;;5016168;28;20399;-68
2022/08/07 11:07:07;;;;;;;2.60;0.90;;;27.00;59.00;;;;;;5016432;28;20449;-68
2022/08/07 11:09:39;;;;;;;2.50;1.00;;;27.80;56.20;;;;;;5016372;28;20748;-68
2022/08/07 11:12:15;;;;;;;1.00;0.90;;;28.60;55.30;;;;;;5016785;28;20536;-68
2022/08/07 11:14:48;;;;;;;1.30;1.20;;;28.90;53.80;;;;;;5016321;28;20755;-68
2022/08/07 11:17:36;;;;;;;1.10;1.00;;;29.20;53.60;;;;;;5015805;28;20529;-68
2022/08/07 11:20:13;;;;;;;1.60;1.00;;;29.10;52.50;;;;;;5027000;28;20457;-68
2022/08/07 11:22:47;;;;;;;1.97;1.10;;;29.10;53.40;;;;;;5036128;28;20758;-66
2022/08/07 11:25:19;;;;;;;1.73;1.00;;;28.90;51.70;;;;;;5035580;28;20453;-68
2022/08/07 11:28:07;;;;;;;1.30;1.00;;;29.50;51.50;;;;;;5035563;28;20421;-66
2022/08/07 11:30:58;;;;;;;1.00;0.80;;;30.20;49.80;;;;;;5035242;28;20419;-67
2022/08/07 11:33:43;;;;;;;1.50;0.90;;;30.70;48.70;;;;;;5024982;28;20970;-67
2022/08/07 11:36:29;;;;;;;1.10;0.80;;;31.10;47.30;;;;;;5036046;28;20508;-67
2022/08/07 11:39:16;;;;;;;1.27;0.97;;;30.40;47.80;;;;;;5035937;28;20394;-67
2022/08/07 11:42:02;;;;;;;3.40;0.93;;;29.80;48.20;;;;;;5035589;28;20390;-67
2022/08/07 11:44:37;;;;;;;1.37;0.77;;;29.80;49.20;;;;;;5035896;28;20418;-66
2022/08/07 11:47:28;;;;;;;1.77;0.77;;;31.20;48.80;;;;;;5017114;28;20429;-67
2022/08/07 11:50:22;;;;;;;1.43;1.00;;;31.90;46.60;;;;;;5035649;28;20387;-67
2022/08/07 11:53:15;;;;;;;1.30;1.10;;;30.90;47.00;;;;;;5035573;28;20485;-67
2022/08/07 11:56:05;;;;;;;1.13;1.00;;;31.80;46.30;;;;;;5035557;28;20425;-67
2022/08/07 11:58:46;;;;;;;1.37;1.10;;;31.70;45.40;;;;;;5035442;28;20389;-67
2022/08/07 12:01:37;;;;;;;1.13;1.00;;;34.00;43.60;;;;;;5033752;28;20456;-67
2022/08/07 12:04:18;;;;;;;4.20;1.20;;;32.00;43.90;;;;;;5035329;28;20393;-67
2022/08/07 12:06:51;;;;;;;0.97;0.80;;;31.80;43.70;;;;;;5035131;28;20431;-67
2022/08/07 12:09:41;;;;;;;1.00;0.70;;;31.40;45.40;;;;;;5035685;28;20864;-67
2022/08/07 12:12:09;;;;;;;0.70;0.57;;;32.90;43.80;;;;;;5035468;28;20500;-67
2022/08/07 12:14:45;;;;;;;1.10;0.80;;;34.00;41.70;;;;;;5034514;28;20410;-67
2022/08/07 12:17:15;;;;;;;1.10;0.70;;;33.30;42.10;;;;;;5034982;28;20386;-67
2022/08/07 12:19:52;;;;;;;0.90;0.80;;;33.10;42.00;;;;;;5035587;28;20489;-68
2022/08/07 12:23:02;;;;;;;1.80;0.87;;;34.60;40.60;;;;;;5036071;28;20405;-67
2022/08/07 12:25:52;;;;;;;2.20;1.10;;;35.30;40.10;;;;;;5034533;28;20446;-68
2022/08/07 12:28:48;;;;;;;1.93;1.20;;;35.70;38.00;;;;;;5034990;28;20924;-68
2022/08/07 12:31:33;;;;;;;1.53;0.80;;;33.80;38.90;;;;;;4990920;28;20458;-67
2022/08/07 12:34:00;;;;;;;1.10;0.60;;;32.90;40.90;;;;;;5034553;28;20394;-67
2022/08/07 12:36:27;;;;;;;1.50;0.90;;;34.80;39.60;;;;;;5033891;28;20452;-67
2022/08/07 12:38:55;;;;;;;1.40;0.90;;;35.20;38.40;;;;;;5034535;28;20420;-67
2022/08/07 12:41:25;;;;;;;1.80;0.77;;;35.90;37.50;;;;;;5034310;28;20937;-67
2022/08/07 12:43:55;;;;;;;0.80;0.80;;;35.60;36.60;;;;;;5035228;28;20879;-67
2022/08/07 12:46:41;;;;;;;1.37;0.97;;;33.60;38.70;;;;;;5033093;28;20536;-67
2022/08/07 12:49:32;;;;;;;1.63;0.70;;;33.60;39.40;;;;;;5034452;28;20764;-68
2022/08/07 12:52:16;;;;;;;0.97;0.87;;;33.90;39.00;;;;;;5036079;28;20442;-67
2022/08/07 12:55:05;;;;;;;1.07;0.80;;;34.00;38.10;;;;;;5033777;28;20449;-67
2022/08/07 12:57:34;;;;;;;1.23;0.87;;;32.60;39.80;;;;;;5033466;28;20426;-66
2022/08/07 13:00:04;;;;;;;1.10;0.70;;;32.50;40.70;;;;;;5033347;28;20915;-67
2022/08/07 13:03:01;;;;;;;2.17;0.90;;;34.00;38.80;;;;;;5032607;28;20429;-67
2022/08/07 13:05:54;;;;;;;1.23;0.70;;;33.60;38.80;;;;;;5033650;28;20926;-67
2022/08/07 13:08:40;;;;;;;1.60;1.00;;;33.20;39.20;;;;;;5033805;28;20410;-66
2022/08/07 13:11:26;;;;;;;1.00;0.70;;;33.10;39.10;;;;;;5033899;28;20434;-67
2022/08/07 13:14:37;;;;;;;1.13;0.80;;;34.80;38.40;;;;;;5033851;28;20448;-67
2022/08/07 13:17:11;;;;;;;1.33;1.00;;;36.30;36.50;;;;;;4999772;28;20415;-67
2022/08/07 13:19:48;;;;;;;1.03;0.90;;;35.30;37.20;;;;;;5033652;28;20444;-68
2022/08/07 13:22:29;;;;;;;0.80;0.70;;;35.50;36.50;;;;;;5016259;28;20893;-68
2022/08/07 13:24:54;;;;;;;2.23;0.80;;;36.70;35.70;;;;;;5032620;28;20918;-67
2022/08/07 13:27:26;;;;;;;1.17;0.90;;;37.30;34.80;;;;;;5033019;28;20453;-67